Time;durP1;ratioP1;P1;durP2;ratioP2;P2;SDS_P1;SDS_P2;PMS_P1;PMS_P2;Temp;Humidity;BMP_temperature;BMP_pressure;BME280_temperature;BME280_humidity;BME280_pressure;Samples;Min_cycle;Max_cycle;Signal;HPM_P1;HPM_P2
2021/10/24 00:01:28;;;;;;;9.47;6.00;;;6.80;99.90;;;;;;5026899;28;20186;-46
2021/10/24 00:03:53;;;;;;;6.73;6.03;;;6.90;99.90;;;;;;5026344;28;20194;-45
2021/10/24 00:06:19;;;;;;;7.80;6.00;;;6.70;99.90;;;;;;5019646;28;20688;-45
2021/10/24 00:08:45;;;;;;;12.53;7.70;;;6.80;99.90;;;;;;5027391;28;20190;-46
2021/10/24 00:11:10;;;;;;;7.00;6.27;;;7.00;99.90;;;;;;5027077;28;20189;-45
2021/10/24 00:13:36;;;;;;;10.07;6.37;;;7.00;99.90;;;;;;5026193;28;20313;-45
2021/10/24 00:16:02;;;;;;;8.90;6.00;;;7.10;99.90;;;;;;5026192;28;20186;-48
2021/10/24 00:18:28;;;;;;;8.57;6.53;;;7.10;99.90;;;;;;5027403;28;20232;-49
2021/10/24 00:20:54;;;;;;;9.60;6.03;;;7.20;99.90;;;;;;5016466;28;20475;-47
2021/10/24 00:23:20;;;;;;;9.03;6.20;;;7.40;99.90;;;;;;5026413;28;20431;-45
2021/10/24 00:25:46;;;;;;;7.93;7.13;;;7.30;99.90;;;;;;5026841;28;20453;-46
2021/10/24 00:28:12;;;;;;;6.57;5.03;;;7.20;99.90;;;;;;5028158;28;20429;-48
2021/10/24 00:30:38;;;;;;;7.40;4.93;;;7.40;99.90;;;;;;5047196;28;20424;-45
2021/10/24 00:33:05;;;;;;;6.20;5.30;;;7.40;99.90;;;;;;5031930;28;20257;-45
2021/10/24 00:35:31;;;;;;;6.97;5.53;;;7.50;99.90;;;;;;5018178;28;20213;-45
2021/10/24 00:37:57;;;;;;;6.33;5.43;;;7.30;99.90;;;;;;5026617;28;20707;-47
2021/10/24 00:40:23;;;;;;;7.23;4.80;;;7.40;99.90;;;;;;5025237;28;20779;-45
2021/10/24 00:42:52;;;;;;;5.23;4.63;;;7.30;99.90;;;;;;5026167;28;20527;-48
2021/10/24 00:45:18;;;;;;;6.93;5.17;;;7.40;99.90;;;;;;5026976;28;20321;-46
2021/10/24 00:47:44;;;;;;;8.67;5.60;;;7.40;99.90;;;;;;5026679;28;20432;-46
2021/10/24 00:50:11;;;;;;;6.70;5.30;;;7.50;99.90;;;;;;5018389;28;20731;-49
2021/10/24 00:52:37;;;;;;;7.53;5.57;;;7.40;99.90;;;;;;5021292;28;20425;-46
2021/10/24 00:55:03;;;;;;;8.53;5.20;;;7.50;99.90;;;;;;5025616;28;20432;-45
2021/10/24 00:57:29;;;;;;;6.00;4.90;;;7.30;99.90;;;;;;5026505;28;20472;-45
2021/10/24 00:59:55;;;;;;;10.80;6.10;;;7.60;99.90;;;;;;5026361;28;20433;-45
2021/10/24 01:02:21;;;;;;;8.53;6.50;;;7.40;99.90;;;;;;5026472;28;20599;-45
2021/10/24 01:04:47;;;;;;;7.80;5.90;;;7.50;99.90;;;;;;5022191;28;20438;-45
2021/10/24 01:07:17;;;;;;;8.40;6.30;;;7.60;99.90;;;;;;5016751;28;20269;-45
2021/10/24 01:09:44;;;;;;;9.83;5.40;;;7.50;99.90;;;;;;5026209;28;20471;-45
2021/10/24 01:12:10;;;;;;;8.17;5.60;;;7.50;99.90;;;;;;5025729;28;20472;-47
2021/10/24 01:14:36;;;;;;;6.30;5.33;;;7.50;99.90;;;;;;5025515;28;20449;-45
2021/10/24 01:17:02;;;;;;;6.27;5.30;;;7.40;99.90;;;;;;5025215;28;20629;-45
2021/10/24 01:19:28;;;;;;;7.83;6.10;;;7.40;99.90;;;;;;5025104;28;20193;-47
2021/10/24 01:21:53;;;;;;;8.57;5.10;;;7.40;99.90;;;;;;5013322;28;20529;-45
2021/10/24 01:24:19;;;;;;;8.90;5.47;;;7.30;99.90;;;;;;5025480;28;20611;-46
2021/10/24 01:26:45;;;;;;;6.20;5.07;;;7.60;99.90;;;;;;5026351;28;20192;-48
2021/10/24 01:29:12;;;;;;;5.93;5.10;;;7.50;99.90;;;;;;5034812;28;20607;-45
2021/10/24 01:31:38;;;;;;;6.97;5.07;;;7.30;99.90;;;;;;5044572;28;20186;-45
2021/10/24 01:34:04;;;;;;;8.20;5.40;;;7.70;99.90;;;;;;5045401;28;20514;-46
2021/10/24 01:36:30;;;;;;;7.27;5.53;;;7.40;99.90;;;;;;5018848;28;20429;-45
2021/10/24 01:38:56;;;;;;;7.30;5.47;;;7.60;99.90;;;;;;5025708;28;20893;-45
2021/10/24 01:41:24;;;;;;;10.57;6.70;;;7.60;99.90;;;;;;5025651;28;20516;-47
2021/10/24 01:43:51;;;;;;;6.57;5.20;;;7.70;99.90;;;;;;5025178;28;20265;-47
2021/10/24 01:46:18;;;;;;;8.30;5.73;;;7.50;99.90;;;;;;5025654;28;20774;-45
2021/10/24 01:48:44;;;;;;;6.37;5.10;;;7.50;99.90;;;;;;5025831;28;20429;-46
2021/10/24 01:51:11;;;;;;;7.23;5.87;;;7.30;99.90;;;;;;5013901;28;20448;-45
2021/10/24 01:53:39;;;;;;;8.03;5.70;;;7.40;99.90;;;;;;5024639;28;20414;-45
2021/10/24 01:56:05;;;;;;;6.73;5.20;;;7.30;99.90;;;;;;5025403;28;20437;-45
2021/10/24 01:58:31;;;;;;;6.83;5.47;;;7.50;99.90;;;;;;5025654;28;20575;-46
2021/10/24 02:00:57;;;;;;;9.13;5.43;;;7.60;99.90;;;;;;5025493;28;20508;-45
2021/10/24 02:03:23;;;;;;;6.67;5.60;;;7.40;99.90;;;;;;5025053;28;20205;-45
2021/10/24 02:05:49;;;;;;;6.87;5.40;;;7.50;99.90;;;;;;5018840;28;20430;-46
2021/10/24 02:08:15;;;;;;;6.33;4.27;;;7.20;99.90;;;;;;5022376;28;20452;-46
2021/10/24 02:10:42;;;;;;;5.07;4.63;;;7.70;99.90;;;;;;5025831;28;20743;-46
2021/10/24 02:13:08;;;;;;;9.00;5.57;;;7.60;99.90;;;;;;5024955;28;20425;-46
2021/10/24 02:15:35;;;;;;;6.90;5.00;;;7.70;99.90;;;;;;5023577;28;20440;-47
2021/10/24 02:18:02;;;;;;;9.30;5.77;;;7.40;99.90;;;;;;5024974;28;20457;-46
2021/10/24 02:20:29;;;;;;;8.47;6.07;;;7.60;99.90;;;;;;5019774;28;20526;-48
2021/10/24 02:22:55;;;;;;;8.57;5.20;;;7.40;99.90;;;;;;5019069;28;20417;-45
2021/10/24 02:25:22;;;;;;;6.77;6.17;;;7.60;99.90;;;;;;5029418;28;20431;-45
2021/10/24 02:27:48;;;;;;;5.47;4.73;;;7.60;99.90;;;;;;5029431;28;20843;-45
2021/10/24 02:30:14;;;;;;;7.60;5.97;;;7.50;99.90;;;;;;5038282;28;20443;-49
2021/10/24 02:32:41;;;;;;;7.30;5.33;;;7.50;99.90;;;;;;5049411;28;20459;-46
2021/10/24 02:35:08;;;;;;;7.17;5.27;;;7.60;99.90;;;;;;5048059;28;20472;-45
2021/10/24 02:37:34;;;;;;;5.40;4.90;;;7.70;99.90;;;;;;5020036;28;20468;-45
2021/10/24 02:40:00;;;;;;;5.93;5.30;;;7.60;99.90;;;;;;5028415;28;20425;-47
2021/10/24 02:42:25;;;;;;;6.83;4.80;;;7.70;99.90;;;;;;5027765;28;20191;-45
2021/10/24 02:44:51;;;;;;;6.53;5.00;;;7.50;99.90;;;;;;5028393;28;20196;-46
2021/10/24 02:47:17;;;;;;;5.30;4.53;;;7.70;99.90;;;;;;5028905;28;20198;-45
2021/10/24 02:49:46;;;;;;;7.67;5.10;;;7.80;99.90;;;;;;5029102;28;20190;-46
2021/10/24 02:52:12;;;;;;;7.63;5.20;;;7.60;99.90;;;;;;5011856;28;20453;-47
2021/10/24 02:54:38;;;;;;;8.70;5.03;;;7.60;99.90;;;;;;5027056;28;20432;-46
2021/10/24 02:57:05;;;;;;;5.67;5.07;;;7.50;99.90;;;;;;5028991;28;20234;-45
2021/10/24 02:59:31;;;;;;;5.17;4.70;;;7.70;99.90;;;;;;5028737;28;20562;-45
2021/10/24 03:01:57;;;;;;;8.23;5.17;;;7.40;99.90;;;;;;5029028;28;20575;-45
2021/10/24 03:04:23;;;;;;;7.67;5.20;;;7.50;99.90;;;;;;5028213;28;20634;-45
2021/10/24 03:06:48;;;;;;;5.70;4.93;;;7.60;99.90;;;;;;5017220;28;20434;-45
2021/10/24 03:09:14;;;;;;;5.57;4.97;;;7.50;99.90;;;;;;5027174;28;20190;-45
2021/10/24 03:11:40;;;;;;;5.97;4.67;;;7.40;99.90;;;;;;5028895;28;20221;-45
2021/10/24 03:14:06;;;;;;;9.30;4.80;;;7.40;99.90;;;;;;5027587;28;20711;-45
2021/10/24 03:16:33;;;;;;;6.37;5.53;;;7.60;99.90;;;;;;5025669;28;20214;-45
2021/10/24 03:18:59;;;;;;;6.63;5.10;;;7.70;99.90;;;;;;5028144;28;20571;-46
2021/10/24 03:21:25;;;;;;;6.73;4.30;;;7.40;99.90;;;;;;5020540;28;20446;-45
2021/10/24 03:23:51;;;;;;;6.63;5.10;;;7.50;99.90;;;;;;5026697;28;20432;-47
2021/10/24 03:26:18;;;;;;;7.93;5.17;;;7.60;99.90;;;;;;5028149;28;20621;-45
2021/10/24 03:28:44;;;;;;;6.33;5.43;;;7.40;99.90;;;;;;5033589;28;20493;-45
2021/10/24 03:31:09;;;;;;;8.90;5.40;;;7.60;99.90;;;;;;5041400;28;20432;-45
2021/10/24 03:33:35;;;;;;;6.93;5.00;;;7.40;99.90;;;;;;5047288;28;20436;-45
2021/10/24 03:36:00;;;;;;;6.10;5.50;;;7.40;99.90;;;;;;5039534;28;20674;-48
2021/10/24 03:38:26;;;;;;;6.50;4.97;;;7.70;99.90;;;;;;5021792;28;20225;-46
2021/10/24 03:40:52;;;;;;;8.03;5.53;;;7.70;99.90;;;;;;5027750;28;20194;-46
2021/10/24 03:43:18;;;;;;;7.77;5.00;;;7.40;99.90;;;;;;5027407;28;20191;-46
2021/10/24 03:45:43;;;;;;;6.60;5.07;;;7.30;99.90;;;;;;5026755;28;20433;-46
2021/10/24 03:48:09;;;;;;;7.90;6.03;;;7.60;99.90;;;;;;5027702;28;20198;-45
2021/10/24 03:50:35;;;;;;;7.00;5.33;;;7.30;99.90;;;;;;5027707;28;20557;-48
2021/10/24 03:53:01;;;;;;;7.87;4.63;;;7.60;99.90;;;;;;5014144;28;20277;-46
2021/10/24 03:55:26;;;;;;;5.47;4.80;;;7.40;99.90;;;;;;5027675;28;20206;-45
2021/10/24 03:57:52;;;;;;;7.30;6.00;;;7.40;99.90;;;;;;5028046;28;20264;-45
2021/10/24 04:00:18;;;;;;;6.53;4.87;;;7.30;99.90;;;;;;5027386;28;20673;-46
2021/10/24 04:02:58;;;;;;;7.53;4.90;;;7.30;99.90;;;;;;5025599;28;20365;-46
2021/10/24 04:05:24;;;;;;;7.97;5.70;;;7.20;99.90;;;;;;5027686;28;20447;-45
2021/10/24 04:07:51;;;;;;;8.33;5.23;;;7.30;99.90;;;;;;5016370;28;20461;-45
2021/10/24 04:10:19;;;;;;;6.97;5.23;;;7.10;99.90;;;;;;5027319;28;20475;-46
2021/10/24 04:12:46;;;;;;;6.93;5.30;;;7.40;99.90;;;;;;5026529;28;20806;-48
2021/10/24 04:15:13;;;;;;;7.97;5.73;;;7.20;99.90;;;;;;5026297;28;20584;-46
2021/10/24 04:17:38;;;;;;;9.20;5.27;;;7.30;99.90;;;;;;5019166;28;20833;-45
2021/10/24 04:20:09;;;;;;;8.30;4.83;;;7.40;99.90;;;;;;5027497;28;20413;-45
2021/10/24 04:22:36;;;;;;;5.80;4.57;;;7.10;99.90;;;;;;5020454;28;20553;-48
2021/10/24 04:25:04;;;;;;;5.70;5.00;;;7.40;99.90;;;;;;5026232;28;20471;-51
2021/10/24 04:27:29;;;;;;;8.97;5.03;;;7.10;99.90;;;;;;5025684;28;20421;-45
2021/10/24 04:29:55;;;;;;;6.73;5.20;;;7.00;99.90;;;;;;5041627;28;20417;-45
2021/10/24 04:32:21;;;;;;;7.00;5.27;;;7.20;99.90;;;;;;5047161;28;20277;-45
2021/10/24 04:34:47;;;;;;;8.30;5.70;;;7.10;99.90;;;;;;5045987;28;20221;-46
2021/10/24 04:37:12;;;;;;;6.37;5.43;;;7.10;99.90;;;;;;5028530;28;20191;-46
2021/10/24 04:39:38;;;;;;;9.63;5.60;;;7.00;99.90;;;;;;5026774;28;20182;-45
2021/10/24 04:42:04;;;;;;;7.70;5.27;;;6.80;99.90;;;;;;5026580;28;20182;-45
2021/10/24 04:44:30;;;;;;;7.43;4.80;;;7.10;99.90;;;;;;5026070;28;20553;-45
2021/10/24 04:46:57;;;;;;;6.50;5.53;;;6.90;99.90;;;;;;5025797;28;20225;-45
2021/10/24 04:49:22;;;;;;;7.67;5.23;;;6.80;99.90;;;;;;5026919;28;20774;-45
2021/10/24 04:51:48;;;;;;;7.67;5.60;;;6.90;99.90;;;;;;5021497;28;20445;-46
2021/10/24 04:54:14;;;;;;;6.80;4.97;;;7.10;99.90;;;;;;5022403;28;20206;-45
2021/10/24 04:56:40;;;;;;;6.77;5.23;;;6.90;99.90;;;;;;5025980;28;20441;-45
2021/10/24 04:59:05;;;;;;;6.10;5.50;;;6.70;99.90;;;;;;5026761;28;20225;-45
2021/10/24 05:01:31;;;;;;;7.47;4.60;;;6.90;99.90;;;;;;5026273;28;20190;-50
2021/10/24 05:03:57;;;;;;;7.80;5.10;;;6.70;99.90;;;;;;5025894;28;20186;-48
2021/10/24 05:06:22;;;;;;;10.60;5.10;;;6.80;99.90;;;;;;5025331;28;20193;-46
2021/10/24 05:08:48;;;;;;;8.27;5.17;;;6.80;99.90;;;;;;5014467;28;20189;-44
2021/10/24 05:11:14;;;;;;;7.23;4.60;;;6.70;99.90;;;;;;5025704;28;20268;-45
2021/10/24 05:13:39;;;;;;;7.13;5.30;;;6.70;99.90;;;;;;5025293;28;20729;-48
2021/10/24 05:16:05;;;;;;;8.10;5.03;;;6.90;99.90;;;;;;5024417;28;20221;-45
2021/10/24 05:18:31;;;;;;;11.17;5.10;;;6.80;99.90;;;;;;5026377;28;20218;-45
2021/10/24 05:20:57;;;;;;;6.97;5.10;;;6.60;99.90;;;;;;5026113;28;20926;-45
2021/10/24 05:23:24;;;;;;;5.37;4.83;;;6.60;99.90;;;;;;5012732;28;20545;-45
2021/10/24 05:25:50;;;;;;;5.73;4.60;;;6.60;99.90;;;;;;5025513;28;20418;-45
2021/10/24 05:28:16;;;;;;;5.47;4.40;;;6.60;99.90;;;;;;5027072;28;20646;-49
2021/10/24 05:30:41;;;;;;;7.00;5.43;;;6.80;99.90;;;;;;5039589;28;20512;-46
2021/10/24 05:33:07;;;;;;;8.57;4.60;;;6.60;99.90;;;;;;5039534;28;20181;-46
2021/10/24 05:35:33;;;;;;;10.30;4.80;;;6.50;99.90;;;;;;5038713;28;20256;-46
2021/10/24 05:37:59;;;;;;;8.87;5.00;;;6.40;99.90;;;;;;5016912;28;20465;-47
2021/10/24 05:40:25;;;;;;;6.63;5.07;;;6.40;99.90;;;;;;5025487;28;20190;-49
2021/10/24 05:42:50;;;;;;;6.07;4.73;;;6.60;99.90;;;;;;5025377;28;20217;-46
2021/10/24 05:45:16;;;;;;;6.70;4.87;;;6.40;99.90;;;;;;5025969;28;20534;-47
2021/10/24 05:47:42;;;;;;;7.77;4.80;;;6.30;99.90;;;;;;5025848;28;20638;-46
2021/10/24 05:50:08;;;;;;;5.47;4.53;;;6.30;99.90;;;;;;5026285;28;20867;-49
2021/10/24 05:52:34;;;;;;;10.60;5.43;;;6.20;99.90;;;;;;5020043;28;20229;-46
2021/10/24 05:55:00;;;;;;;7.00;5.20;;;6.20;99.90;;;;;;5020104;28;20460;-45
2021/10/24 05:57:25;;;;;;;5.87;4.47;;;6.10;99.90;;;;;;5024085;28;20688;-45
2021/10/24 05:59:51;;;;;;;10.53;5.20;;;6.20;99.90;;;;;;5025692;28;20425;-45
2021/10/24 06:02:17;;;;;;;8.03;5.00;;;5.90;99.90;;;;;;5039541;28;20196;-47
2021/10/24 06:04:42;;;;;;;6.27;5.00;;;5.90;99.90;;;;;;5030139;28;20208;-45
2021/10/24 06:07:09;;;;;;;8.47;5.83;;;6.00;99.90;;;;;;5021245;28;20194;-46
2021/10/24 06:12:12;;;;;;;5.00;4.30;;;6.10;99.90;;;;;;5025574;28;20413;-45
2021/10/24 06:14:38;;;;;;;5.57;4.90;;;6.00;99.90;;;;;;5024904;28;20822;-46
2021/10/24 06:17:06;;;;;;;7.00;4.97;;;5.80;99.90;;;;;;5024057;28;20515;-45
2021/10/24 06:19:32;;;;;;;7.40;4.90;;;5.60;99.90;;;;;;5025140;28;20429;-46
2021/10/24 06:21:57;;;;;;;7.40;5.67;;;5.50;99.90;;;;;;5017621;28;20417;-45
2021/10/24 06:24:23;;;;;;;7.60;4.83;;;5.50;99.90;;;;;;5016264;28;20206;-49
2021/10/24 06:26:48;;;;;;;5.70;5.10;;;5.40;99.90;;;;;;5025416;28;20644;-48
2021/10/24 06:29:14;;;;;;;6.20;5.30;;;5.40;99.90;;;;;;5035955;28;20216;-45
2021/10/24 06:31:40;;;;;;;6.77;5.30;;;5.50;99.90;;;;;;5033912;28;20190;-45
2021/10/24 06:34:05;;;;;;;6.97;5.57;;;5.70;99.90;;;;;;5023521;28;20621;-48
2021/10/24 06:36:31;;;;;;;8.00;5.30;;;5.70;99.90;;;;;;5024794;28;20254;-45
2021/10/24 06:38:57;;;;;;;5.93;5.33;;;5.70;99.90;;;;;;5017600;28;20250;-48
2021/10/24 06:41:22;;;;;;;7.07;4.90;;;5.90;99.90;;;;;;5024730;28;20210;-46
2021/10/24 06:43:48;;;;;;;6.87;5.00;;;5.90;99.90;;;;;;5024235;28;20197;-45
2021/10/24 06:46:14;;;;;;;6.83;5.40;;;5.90;99.90;;;;;;5026459;28;20229;-47
2021/10/24 06:48:39;;;;;;;8.67;5.23;;;5.80;99.90;;;;;;5025423;28;20380;-45
2021/10/24 06:51:05;;;;;;;8.50;5.23;;;6.00;99.90;;;;;;5024934;28;20195;-46
2021/10/24 06:53:31;;;;;;;8.33;4.20;;;6.20;99.90;;;;;;5015949;28;20536;-47
2021/10/24 06:55:56;;;;;;;7.00;5.20;;;6.10;99.90;;;;;;5025105;28;20519;-48
2021/10/24 06:58:22;;;;;;;5.23;4.20;;;6.40;99.90;;;;;;5025072;28;20237;-45
2021/10/24 07:00:47;;;;;;;6.37;4.40;;;6.40;99.90;;;;;;5023602;28;20186;-45
2021/10/24 07:03:13;;;;;;;5.43;4.30;;;6.30;99.90;;;;;;5025629;28;20194;-46
2021/10/24 07:05:39;;;;;;;5.70;4.47;;;6.30;99.90;;;;;;5025341;28;20336;-46
2021/10/24 07:08:06;;;;;;;5.50;4.17;;;6.30;99.90;;;;;;5013684;28;20203;-45
2021/10/24 07:10:32;;;;;;;5.13;4.63;;;6.50;99.90;;;;;;5026715;28;20186;-46
2021/10/24 07:12:57;;;;;;;4.90;4.40;;;6.50;99.90;;;;;;5027948;28;20428;-49
2021/10/24 07:15:23;;;;;;;5.00;4.53;;;7.00;99.90;;;;;;5027060;28;20436;-48
2021/10/24 07:17:50;;;;;;;5.00;4.50;;;6.80;99.90;;;;;;5028260;28;20382;-46
2021/10/24 07:20:16;;;;;;;7.37;5.53;;;6.90;99.90;;;;;;5028284;28;20256;-51
2021/10/24 07:22:42;;;;;;;8.93;6.17;;;7.10;99.90;;;;;;5024223;28;20599;-45
2021/10/24 07:25:09;;;;;;;8.93;5.93;;;7.30;99.90;;;;;;5017353;28;20932;-48
2021/10/24 07:27:34;;;;;;;9.40;7.00;;;7.60;99.90;;;;;;5028545;28;20427;-45
2021/10/24 07:30:00;;;;;;;7.90;6.20;;;7.70;99.90;;;;;;5044988;28;20848;-46
2021/10/24 07:32:26;;;;;;;7.53;5.70;;;8.00;99.90;;;;;;5034585;28;20448;-49
2021/10/24 07:34:51;;;;;;;9.50;5.90;;;8.30;99.90;;;;;;5042361;28;20190;-46
2021/10/24 07:37:17;;;;;;;7.13;5.40;;;8.40;99.90;;;;;;5047202;28;20201;-48
2021/10/24 07:39:43;;;;;;;6.57;5.57;;;8.30;99.90;;;;;;5013476;28;20273;-45
2021/10/24 07:42:10;;;;;;;6.40;5.63;;;8.80;99.90;;;;;;5027326;28;20648;-45
2021/10/24 07:44:37;;;;;;;5.87;5.00;;;8.90;99.90;;;;;;5026874;28;20923;-45
2021/10/24 07:47:03;;;;;;;12.20;5.00;;;9.10;99.90;;;;;;5026898;28;20429;-49
2021/10/24 07:49:29;;;;;;;6.13;4.77;;;9.40;99.90;;;;;;5026623;28;20567;-45
2021/10/24 07:51:56;;;;;;;8.20;4.90;;;9.70;99.90;;;;;;5027016;28;20944;-49
2021/10/24 07:54:22;;;;;;;6.60;4.80;;;9.70;99.90;;;;;;5015248;28;20428;-47
2021/10/24 07:56:47;;;;;;;7.00;4.50;;;10.00;99.90;;;;;;5026744;28;20450;-48
2021/10/24 07:59:13;;;;;;;7.40;5.10;;;10.10;99.90;;;;;;5027017;28;20226;-46
2021/10/24 08:01:40;;;;;;;5.03;4.50;;;10.50;99.90;;;;;;5026932;28;20565;-48
2021/10/24 08:04:07;;;;;;;5.50;4.87;;;10.60;99.90;;;;;;5020322;28;20201;-46
2021/10/24 08:06:34;;;;;;;6.30;4.77;;;10.70;99.90;;;;;;5023106;28;20452;-48
2021/10/24 08:09:07;;;;;;;6.90;4.73;;;10.90;99.90;;;;;;5013387;28;20446;-47
2021/10/24 08:11:37;;;;;;;5.80;5.27;;;10.80;99.90;;;;;;5026017;28;20460;-45
2021/10/24 08:14:06;;;;;;;5.30;4.80;;;11.00;99.90;;;;;;5025905;28;20776;-48
2021/10/24 08:16:39;;;;;;;4.87;3.87;;;11.20;99.90;;;;;;5024522;28;20462;-46
2021/10/24 08:19:04;;;;;;;7.50;3.90;;;11.30;99.90;;;;;;5026752;28;20476;-46
2021/10/24 08:21:31;;;;;;;4.83;3.87;;;11.50;99.90;;;;;;5026430;28;20429;-46
2021/10/24 08:23:57;;;;;;;4.87;4.00;;;11.60;99.90;;;;;;5022413;28;20257;-46
2021/10/24 08:26:23;;;;;;;5.30;4.00;;;11.80;99.90;;;;;;5025825;28;20886;-45
2021/10/24 08:28:49;;;;;;;6.33;3.73;;;11.90;99.90;;;;;;5027003;28;20204;-47
2021/10/24 08:31:17;;;;;;;7.93;4.57;;;12.10;99.90;;;;;;5024478;28;20561;-45
2021/10/24 08:33:43;;;;;;;5.53;3.80;;;12.30;99.90;;;;;;5022282;28;20425;-48
2021/10/24 08:36:10;;;;;;;5.83;4.03;;;12.50;99.90;;;;;;5025950;28;20433;-46
2021/10/24 08:38:35;;;;;;;11.60;4.70;;;12.70;99.90;;;;;;5008667;28;20504;-53
2021/10/24 08:41:02;;;;;;;5.60;4.30;;;12.80;99.90;;;;;;5021983;28;20523;-46
2021/10/24 08:43:31;;;;;;;4.70;4.17;;;12.90;99.90;;;;;;5025220;28;20269;-46
2021/10/24 08:45:57;;;;;;;7.43;4.40;;;12.90;99.90;;;;;;5025232;28;20433;-48
2021/10/24 08:48:23;;;;;;;6.73;4.90;;;13.00;99.90;;;;;;5025817;28;20455;-46
2021/10/24 08:50:50;;;;;;;5.47;4.20;;;13.10;99.90;;;;;;5025861;28;20811;-46
2021/10/24 08:53:24;;;;;;;7.00;4.30;;;13.10;99.90;;;;;;5020515;28;20249;-47
2021/10/24 08:55:50;;;;;;;4.20;3.80;;;13.10;99.90;;;;;;5021109;28;20441;-46
2021/10/24 08:58:16;;;;;;;6.60;4.00;;;13.00;99.90;;;;;;5025334;28;20998;-46
2021/10/24 09:00:42;;;;;;;5.70;4.47;;;13.00;99.90;;;;;;5025653;28;20190;-49
2021/10/24 09:03:12;;;;;;;3.90;3.53;;;13.20;99.90;;;;;;5025214;28;20446;-46
2021/10/24 09:05:48;;;;;;;6.37;3.00;;;13.20;99.90;;;;;;5025778;28;20517;-46
2021/10/24 09:08:22;;;;;;;6.30;3.40;;;13.20;99.90;;;;;;5021809;28;20433;-46
2021/10/24 09:10:53;;;;;;;6.00;3.00;;;13.10;99.90;;;;;;5021713;28;20432;-46
2021/10/24 09:13:21;;;;;;;5.80;2.90;;;13.30;99.90;;;;;;5024210;28;20429;-50
2021/10/24 09:16:18;;;;;;;5.10;2.80;;;13.50;99.90;;;;;;5025660;28;20564;-48
2021/10/24 09:18:44;;;;;;;6.33;2.93;;;13.60;99.80;;;;;;5007951;28;20934;-48
2021/10/24 09:21:15;;;;;;;4.13;2.83;;;13.80;99.10;;;;;;5025475;28;20463;-47
2021/10/24 09:23:53;;;;;;;3.87;2.70;;;13.60;99.20;;;;;;5027357;28;20190;-47
2021/10/24 09:26:25;;;;;;;4.00;3.10;;;13.60;99.50;;;;;;5021950;28;20432;-46
2021/10/24 09:29:09;;;;;;;3.40;2.70;;;13.80;99.50;;;;;;5021668;28;20449;-46
2021/10/24 09:31:43;;;;;;;3.93;2.73;;;13.80;99.20;;;;;;5021747;28;20768;-45
2021/10/24 09:34:25;;;;;;;3.67;2.50;;;13.90;99.00;;;;;;5024017;28;20455;-46
2021/10/24 09:37:02;;;;;;;4.03;3.57;;;13.90;99.50;;;;;;5022992;28;20928;-47
2021/10/24 09:39:29;;;;;;;4.27;3.07;;;13.90;98.10;;;;;;5018477;28;20468;-46
2021/10/24 09:42:18;;;;;;;4.50;3.20;;;13.80;98.60;;;;;;5021879;28;20818;-48
2021/10/24 09:45:05;;;;;;;3.87;2.53;;;13.80;98.80;;;;;;5022568;28;20468;-50
2021/10/24 09:47:32;;;;;;;3.77;2.20;;;13.70;98.50;;;;;;5025055;28;20421;-47
2021/10/24 09:49:58;;;;;;;4.83;2.30;;;13.80;98.80;;;;;;5027572;28;20427;-46
2021/10/24 09:52:28;;;;;;;6.67;2.47;;;14.00;98.90;;;;;;5025958;28;20421;-47
2021/10/24 09:54:55;;;;;;;3.60;2.10;;;14.30;98.10;;;;;;5019526;28;20733;-47
2021/10/24 09:57:22;;;;;;;3.80;2.50;;;14.30;98.30;;;;;;5026787;28;20499;-47
2021/10/24 09:59:52;;;;;;;2.50;2.27;;;14.40;98.30;;;;;;5028410;28;21137;-46
2021/10/24 10:02:19;;;;;;;3.50;2.80;;;14.20;98.00;;;;;;5023496;28;20417;-46
2021/10/24 10:04:46;;;;;;;4.07;3.00;;;14.20;97.50;;;;;;5024822;28;20470;-46
2021/10/24 10:07:14;;;;;;;3.93;2.63;;;14.10;97.70;;;;;;5027439;28;20456;-48
2021/10/24 10:09:41;;;;;;;4.30;2.73;;;14.00;98.40;;;;;;5019296;28;20468;-47
2021/10/24 10:12:08;;;;;;;3.63;2.70;;;14.10;98.40;;;;;;5023859;28;20469;-50
2021/10/24 10:14:39;;;;;;;2.57;2.30;;;14.10;98.40;;;;;;5024694;28;20429;-46
2021/10/24 10:17:08;;;;;;;4.90;2.33;;;14.20;98.80;;;;;;5024186;28;20428;-46
2021/10/24 10:19:37;;;;;;;4.43;2.40;;;14.20;98.20;;;;;;5023262;28;20461;-46
2021/10/24 10:22:30;;;;;;;2.90;2.33;;;14.10;97.90;;;;;;5025925;28;20846;-46
2021/10/24 10:25:05;;;;;;;4.33;2.33;;;14.00;98.50;;;;;;5014771;28;21131;-46
2021/10/24 10:27:38;;;;;;;3.73;2.73;;;13.90;97.90;;;;;;5021674;28;20554;-47
2021/10/24 10:30:09;;;;;;;5.13;2.30;;;13.90;97.70;;;;;;5025881;28;20428;-48
2021/10/24 10:32:40;;;;;;;2.70;2.37;;;13.70;97.80;;;;;;5020193;28;20819;-46
2021/10/24 10:35:14;;;;;;;3.20;2.30;;;13.60;98.00;;;;;;5020997;28;20449;-47
2021/10/24 10:38:03;;;;;;;3.37;2.23;;;13.70;99.00;;;;;;5022059;28;20480;-45
2021/10/24 10:40:41;;;;;;;3.90;2.53;;;13.70;98.40;;;;;;5016109;28;20448;-50
2021/10/24 10:43:20;;;;;;;3.53;2.13;;;13.60;99.00;;;;;;5025289;28;20460;-45
2021/10/24 10:45:49;;;;;;;3.20;2.30;;;13.60;98.90;;;;;;5029919;28;20424;-48
2021/10/24 10:48:26;;;;;;;5.47;2.77;;;13.60;98.70;;;;;;5037004;28;20781;-46
2021/10/24 10:50:57;;;;;;;3.30;2.30;;;13.70;98.60;;;;;;5049429;28;20428;-49
2021/10/24 10:53:32;;;;;;;4.13;2.30;;;13.60;99.50;;;;;;5032772;28;20425;-48
2021/10/24 10:56:01;;;;;;;2.93;2.03;;;13.60;98.30;;;;;;5020579;28;20489;-48
2021/10/24 10:58:38;;;;;;;5.60;2.00;;;13.50;98.40;;;;;;5030052;28;20475;-46
2021/10/24 11:01:25;;;;;;;3.87;2.27;;;13.40;98.00;;;;;;5029912;28;20421;-50
2021/10/24 11:04:08;;;;;;;3.90;2.37;;;13.50;98.70;;;;;;5029103;28;20428;-46
2021/10/24 11:06:34;;;;;;;2.60;2.00;;;13.50;98.90;;;;;;5030330;28;20467;-49
2021/10/24 11:09:12;;;;;;;3.40;2.30;;;13.50;99.10;;;;;;5029930;28;20932;-46
2021/10/24 11:14:16;;;;;;;2.10;1.90;;;13.60;98.70;;;;;;5028849;28;20524;-48
2021/10/24 11:16:51;;;;;;;2.70;2.20;;;13.70;99.00;;;;;;5021065;28;20194;-47
2021/10/24 11:19:29;;;;;;;3.07;2.20;;;13.80;99.60;;;;;;5036444;28;20550;-46
2021/10/24 11:22:10;;;;;;;2.60;2.10;;;13.90;99.30;;;;;;5049347;28;20427;-47
2021/10/24 11:24:39;;;;;;;3.50;2.83;;;14.10;98.40;;;;;;5041287;28;20456;-48
2021/10/24 11:27:07;;;;;;;2.73;1.53;;;14.30;98.30;;;;;;5016827;28;20479;-48
2021/10/24 11:29:33;;;;;;;2.33;2.10;;;14.50;99.20;;;;;;5012901;28;20472;-48
2021/10/24 11:32:23;;;;;;;1.90;1.63;;;14.70;98.70;;;;;;5029440;28;20433;-46
2021/10/24 11:34:50;;;;;;;2.13;1.90;;;14.90;98.30;;;;;;5029132;28;20437;-47
2021/10/24 11:37:17;;;;;;;2.40;1.73;;;15.10;96.70;;;;;;5029341;28;20494;-48
2021/10/24 11:39:55;;;;;;;4.57;2.37;;;15.30;96.20;;;;;;5025623;28;20466;-50
2021/10/24 11:42:21;;;;;;;1.60;1.43;;;15.40;95.80;;;;;;5020064;28;20467;-44
2021/10/24 11:44:47;;;;;;;1.70;1.60;;;15.50;96.30;;;;;;5027297;28;20432;-47
2021/10/24 11:47:15;;;;;;;2.80;1.70;;;15.70;95.90;;;;;;5029289;28;20616;-46
2021/10/24 11:49:55;;;;;;;2.40;1.53;;;15.80;94.60;;;;;;5028627;28;20397;-46
2021/10/24 11:52:32;;;;;;;2.80;1.80;;;15.90;94.70;;;;;;5029565;28;20417;-47
2021/10/24 11:55:12;;;;;;;2.20;2.00;;;15.90;94.80;;;;;;5021683;28;20437;-47
2021/10/24 11:58:03;;;;;;;1.50;1.40;;;15.90;94.30;;;;;;5024209;28;20503;-45
2021/10/24 12:03:29;;;;;;;2.47;1.87;;;16.20;94.70;;;;;;5025350;28;20440;-51
2021/10/24 12:05:55;;;;;;;3.70;2.03;;;16.30;93.90;;;;;;5026669;28;20496;-47
2021/10/24 12:08:42;;;;;;;2.37;1.43;;;16.30;92.50;;;;;;5027674;28;20494;-46
2021/10/24 12:11:12;;;;;;;2.33;1.73;;;16.30;93.00;;;;;;5020565;28;20452;-47
2021/10/24 12:13:40;;;;;;;2.90;1.70;;;16.40;92.40;;;;;;5026670;28;20445;-45
2021/10/24 12:16:27;;;;;;;3.00;1.40;;;16.40;92.30;;;;;;5028538;28;20440;-51
2021/10/24 12:19:14;;;;;;;1.83;1.60;;;16.30;92.60;;;;;;5028544;28;20507;-48
2021/10/24 12:21:52;;;;;;;4.40;1.50;;;16.40;92.90;;;;;;5028536;28;20471;-47
2021/10/24 12:24:24;;;;;;;1.40;1.30;;;16.50;93.10;;;;;;5027400;28;20915;-49
2021/10/24 12:27:05;;;;;;;2.30;1.47;;;16.50;93.00;;;;;;5018331;28;20436;-47
2021/10/24 12:29:31;;;;;;;2.23;1.30;;;16.50;92.90;;;;;;5029610;28;20431;-46
2021/10/24 12:32:11;;;;;;;2.00;1.70;;;16.60;92.70;;;;;;5028263;28;20433;-51
2021/10/24 12:34:39;;;;;;;4.67;1.70;;;16.70;92.90;;;;;;5027361;28;20244;-46
2021/10/24 12:37:16;;;;;;;3.50;1.90;;;16.70;92.30;;;;;;5027760;28;20425;-52
2021/10/24 12:39:42;;;;;;;2.93;1.97;;;16.70;93.10;;;;;;5027692;28;21038;-48
2021/10/24 12:42:18;;;;;;;2.27;1.90;;;16.70;92.50;;;;;;5025081;28;20424;-48
2021/10/24 12:44:45;;;;;;;3.63;1.50;;;16.90;92.30;;;;;;5026407;28;20506;-48
2021/10/24 12:47:12;;;;;;;3.37;1.67;;;16.90;92.40;;;;;;5027821;28;20437;-45
2021/10/24 12:49:38;;;;;;;1.83;1.70;;;17.00;92.10;;;;;;5027543;28;20524;-49
2021/10/24 12:52:22;;;;;;;2.03;1.60;;;17.30;92.20;;;;;;5027871;28;20437;-48
2021/10/24 12:54:59;;;;;;;1.47;1.20;;;17.30;92.10;;;;;;5026000;28;20430;-48
2021/10/24 12:57:24;;;;;;;1.23;1.13;;;17.40;92.90;;;;;;5018617;28;20448;-47
2021/10/24 12:59:51;;;;;;;3.13;1.43;;;17.60;91.80;;;;;;5025925;28;20426;-47
2021/10/24 13:02:17;;;;;;;2.63;2.00;;;17.80;91.20;;;;;;5025040;28;20186;-45
2021/10/24 13:04:44;;;;;;;2.77;1.63;;;17.70;90.50;;;;;;5025363;28;20786;-46
2021/10/24 13:07:09;;;;;;;1.97;1.77;;;17.70;90.50;;;;;;5022499;28;20229;-45